Aiken, SC

1:17 PM EDT on July 06, 2015 (GMT -0400)
100 Akre Wood | | Change Station
CLOSE
Current Station
Personal Weather Station
Location: Aiken, SC
Elevation: 449 ft
Nearby Weather Stations

Elev 449 ft 33.53 °N, 81.73 °W | Updated 15 minutes ago

Mostly Cloudy
Mostly Cloudy
86.2 °F
Feels Like 94 °F
N
0.7
Wind Variable Wind from North
Gusts 3.8 mph

Today
High -- | Low -- °F
--% Chance of Precip.
Yesterday
High -- | Low -- °F
Precip. -- in
6:22 AM 8:40 PM
Waning Gibbous, 74% visible
Pressure 30.14 in
Visibility 10.0 miles
Clouds Scattered Clouds 2900 ft
Scattered Clouds 4800 ft
Heat Index 94 °F
Dew Point 74 °F
Humidity 67%
Rainfall 0.00 in
Snow Depth Not available.
UV 10 out of 12
Pollen 3.40 out of 12
Air Quality Not available.
Flu Activity Not available.
METAR KAGS 061653Z 21007KT 10SM SCT029 SCT048 30/22 A3014 RMK AO2 SLP204 T03000217

More Conditions Fewer Conditions

Pressure 30.14 in
Visibility 10.0 miles
Clouds Scattered Clouds 2900 ft
Scattered Clouds 4800 ft
Heat Index 94 °F
Dew Point 74 °F
Humidity 67%
Rainfall 0.00 in
Snow Depth Not available.
UV 10 out of 12
Pollen 3.40 out of 12
Air Quality Not available.
Flu Activity Not available.
METAR KAGS 061653Z 21007KT 10SM SCT029 SCT048 30/22 A3014 RMK AO2 SLP204 T03000217

More Conditions Fewer Conditions

10-Day Weather Forecast

×

Almanac

Astronomy

Jul. 06, 2015 Rise Set
Actual Time
Civil Twilight
Nautical Twilight
Astronomical Twilight
Moon
Length of Visible Light
Length of Day
Tomorrow will be .
, % of the Moon is Illuminated

Today's Extremes

State Highs State Lows

Community

WunderPhotos

Upload Photos

1,835,604 photos uploaded!

WunderBlogs® & News

Nearby

Air Quality

  Air Quality AQ Index Pollutant
Not available.

Snow Depth

Station Depth Elevation

Earthquake Activity

City Distance Mag. Time & Date
Minimum magnitude displayed is 2.5.

Coastal Water Temperatures

Place Temperature

Stations

Nearby Weather Stations

Station Location Temp. Windchill Dew Point Humidity Wind Precip. Elev Updated Type